Time;durP1;ratioP1;P1;durP2;ratioP2;P2;SDS_P1;SDS_P2;PMS_P1;PMS_P2;Temp;Humidity;BMP_temperature;BMP_pressure;BME280_temperature;BME280_humidity;BME280_pressure;Samples;Min_cycle;Max_cycle;Signal;HPM_P1;HPM_P2
2021/04/30 00:00:53;;;;;;;7.50;7.00;;;;;;;5.96;70.73;97469.41;5060277;28;20207;-71
2021/04/30 00:03:20;;;;;;;6.53;6.13;;;;;;;5.99;70.66;97470.91;5055224;28;20231;-71
2021/04/30 00:05:48;;;;;;;6.87;6.20;;;;;;;5.68;71.49;97469.44;5056877;28;20227;-70
2021/04/30 00:08:15;;;;;;;7.00;6.40;;;;;;;5.71;72.12;97469.13;5055882;28;20207;-71
2021/04/30 00:10:43;;;;;;;7.03;6.43;;;;;;;5.65;71.90;97470.53;5061054;28;20203;-70
2021/04/30 00:13:11;;;;;;;7.07;6.47;;;;;;;5.75;71.71;97470.50;5061146;28;20231;-71
2021/04/30 00:15:38;;;;;;;7.20;6.70;;;;;;;5.81;71.60;97471.72;5059153;28;20210;-71
2021/04/30 00:18:05;;;;;;;7.37;6.67;;;;;;;5.67;72.18;97473.03;5061106;28;20203;-71
2021/04/30 00:20:34;;;;;;;7.00;6.50;;;;;;;5.50;72.68;97472.84;5061573;28;20217;-71
2021/04/30 00:23:02;;;;;;;7.80;7.20;;;;;;;5.52;73.12;97469.22;5059443;28;20234;-71
2021/04/30 00:25:29;;;;;;;7.27;6.77;;;;;;;5.53;73.10;97469.06;5058198;28;20206;-71
2021/04/30 00:27:56;;;;;;;7.33;6.73;;;;;;;5.53;72.85;97471.69;5057657;28;20671;-72
2021/04/30 00:30:24;;;;;;;6.93;6.43;;;;;;;5.47;72.98;97464.41;5061700;28;20679;-71
2021/04/30 00:32:51;;;;;;;6.27;5.80;;;;;;;5.18;73.86;97481.94;5056610;28;20227;-70
2021/04/30 00:35:18;;;;;;;7.30;6.70;;;;;;;5.00;75.40;97475.72;5061333;28;20207;-71
2021/04/30 00:37:45;;;;;;;6.80;6.30;;;;;;;5.03;75.18;97480.69;5062170;28;20207;-72
2021/04/30 00:40:13;;;;;;;7.00;6.40;;;;;;;4.96;75.34;97493.59;5061842;28;20611;-72
2021/04/30 00:42:40;;;;;;;7.57;6.87;;;;;;;4.97;75.34;97502.28;5063392;28;20222;-71
2021/04/30 00:45:08;;;;;;;7.00;6.40;;;;;;;4.81;76.17;97492.34;5060783;28;20211;-72
2021/04/30 00:47:37;;;;;;;7.53;6.93;;;;;;;4.72;76.41;97497.47;5063846;28;20625;-71
2021/04/30 00:50:06;;;;;;;7.57;6.80;;;;;;;4.66;76.90;97495.41;5058426;28;20675;-71
2021/04/30 00:52:33;;;;;;;7.73;7.13;;;;;;;4.59;77.19;97499.56;5063626;28;20223;-71
2021/04/30 00:55:00;;;;;;;7.20;6.70;;;;;;;4.46;77.44;97495.38;5059731;28;20211;-71
2021/04/30 00:57:28;;;;;;;7.07;6.47;;;;;;;4.51;77.32;97494.97;5063684;28;20571;-71
2021/04/30 00:59:56;;;;;;;7.27;6.77;;;;;;;4.45;77.26;97498.16;5059463;28;20207;-70
2021/04/30 01:02:23;;;;;;;6.73;6.23;;;;;;;4.31;78.42;97494.97;5064535;28;20219;-71
2021/04/30 01:04:50;;;;;;;7.33;6.83;;;;;;;4.16;79.27;97504.19;5056026;28;20618;-71
2021/04/30 01:07:17;;;;;;;7.70;7.00;;;;;;;4.07;79.79;97499.78;5061141;28;20230;-71
2021/04/30 01:09:44;;;;;;;7.20;6.70;;;;;;;4.05;79.58;97502.50;5057814;28;20233;-71
2021/04/30 01:12:11;;;;;;;7.43;6.83;;;;;;;4.06;79.64;97498.94;5063227;28;20230;-71
2021/04/30 01:14:39;;;;;;;7.13;6.63;;;;;;;4.17;79.60;97500.63;5063216;28;20214;-71
2021/04/30 01:17:07;;;;;;;7.57;6.87;;;;;;;4.12;80.00;97501.00;5061507;28;21140;-70
2021/04/30 01:19:34;;;;;;;7.93;7.33;;;;;;;3.88;80.44;97501.38;5062332;28;20207;-71
2021/04/30 01:22:01;;;;;;;7.67;7.10;;;;;;;3.73;81.41;97507.00;5062477;28;20741;-71
2021/04/30 01:24:29;;;;;;;8.37;7.67;;;;;;;3.66;82.49;97513.72;5059597;28;20238;-71
2021/04/30 01:26:56;;;;;;;8.03;7.43;;;;;;;3.53;83.19;97521.81;5063778;28;20650;-71
2021/04/30 01:29:26;;;;;;;8.20;7.50;;;;;;;3.41;83.51;97526.28;5059584;28;20225;-70
2021/04/30 01:31:53;;;;;;;8.17;7.57;;;;;;;3.41;83.60;97535.94;5060926;28;20607;-71
2021/04/30 01:34:20;;;;;;;8.03;7.43;;;;;;;3.33;83.69;97529.56;5052313;28;20666;-71
2021/04/30 01:36:46;;;;;;;8.20;7.50;;;;;;;3.30;83.75;97523.75;5060122;28;20196;-70
2021/04/30 01:39:15;;;;;;;8.43;7.83;;;;;;;3.45;82.93;97526.88;5059929;28;20207;-71
2021/04/30 01:41:43;;;;;;;8.93;7.97;;;;;;;3.36;83.60;97525.00;5056734;28;20789;-71
2021/04/30 01:44:11;;;;;;;8.53;7.73;;;;;;;3.29;83.50;97520.31;5060752;28;20635;-70
2021/04/30 01:46:39;;;;;;;7.93;7.33;;;;;;;3.25;83.17;97521.53;5062701;28;20230;-71
2021/04/30 01:49:07;;;;;;;8.33;7.73;;;;;;;3.08;83.85;97525.56;5062247;28;20256;-71
2021/04/30 01:51:35;;;;;;;8.63;7.93;;;;;;;2.96;84.90;97531.81;5061781;28;20198;-71
2021/04/30 01:54:03;;;;;;;7.63;7.10;;;;;;;2.97;85.65;97526.44;5061199;28;20210;-72
2021/04/30 01:56:31;;;;;;;8.03;7.43;;;;;;;3.05;84.64;97523.19;5059105;28;20202;-71
2021/04/30 01:58:58;;;;;;;9.27;8.47;;;;;;;2.95;84.99;97519.69;5060603;28;20199;-71
2021/04/30 02:01:25;;;;;;;9.40;8.60;;;;;;;2.91;84.87;97519.09;5059855;28;20207;-71
2021/04/30 02:03:58;;;;;;;9.00;8.30;;;;;;;2.84;85.60;97516.19;5061604;28;20285;-70
2021/04/30 02:06:25;;;;;;;9.13;8.43;;;;;;;2.77;86.65;97512.38;5059150;28;20230;-70
2021/04/30 02:08:54;;;;;;;9.17;8.47;;;;;;;2.59;87.06;97512.09;5061147;28;20207;-71
2021/04/30 02:11:21;;;;;;;9.13;8.37;;;;;;;2.50;87.90;97510.25;5054558;28;20215;-71
2021/04/30 02:13:49;;;;;;;8.90;8.20;;;;;;;2.48;87.75;97512.16;5061109;28;20203;-70
2021/04/30 02:16:16;;;;;;;8.90;8.20;;;;;;;2.49;88.63;97508.59;5059352;28;20199;-71
2021/04/30 02:18:43;;;;;;;9.00;8.30;;;;;;;2.42;89.18;97516.09;5059347;28;20384;-71
2021/04/30 02:21:10;;;;;;;9.27;8.57;;;;;;;2.58;88.26;97524.38;5062287;28;20591;-71
2021/04/30 02:23:37;;;;;;;9.13;8.43;;;;;;;2.62;87.40;97531.97;5056860;28;20227;-70
2021/04/30 02:26:05;;;;;;;9.13;8.43;;;;;;;2.58;87.44;97529.59;5060898;28;20223;-70
2021/04/30 02:28:32;;;;;;;9.10;8.40;;;;;;;2.48;87.56;97528.69;5061882;28;20675;-71
2021/04/30 02:31:00;;;;;;;8.60;7.97;;;;;;;2.32;89.31;97534.34;5061466;28;20219;-69
2021/04/30 02:33:27;;;;;;;9.37;8.60;;;;;;;2.25;89.59;97528.75;5061958;28;20604;-71
2021/04/30 02:35:54;;;;;;;10.07;9.27;;;;;;;2.22;91.12;97534.22;5059774;28;20202;-71
2021/04/30 02:38:21;;;;;;;9.87;9.07;;;;;;;2.51;90.43;97527.59;5061794;28;20214;-71
2021/04/30 02:40:51;;;;;;;9.67;8.97;;;;;;;2.46;90.33;97527.97;5056328;28;20483;-70
2021/04/30 02:43:21;;;;;;;9.47;8.67;;;;;;;2.34;90.56;97531.59;5059214;28;20314;-71
2021/04/30 02:45:51;;;;;;;9.47;8.67;;;;;;;2.42;89.93;97526.56;5062127;28;20773;-71
2021/04/30 02:48:29;;;;;;;9.77;9.07;;;;;;;2.24;90.90;97526.25;5058438;28;20344;-71
2021/04/30 02:50:57;;;;;;;9.67;8.93;;;;;;;2.36;90.93;97524.44;5060958;28;20282;-70
2021/04/30 02:53:24;;;;;;;10.47;9.37;;;;;;;2.62;88.86;97522.31;5056832;28;20245;-69
2021/04/30 02:55:52;;;;;;;10.13;9.23;;;;;;;2.43;89.50;97520.38;5059128;28;20226;-69
2021/04/30 02:58:19;;;;;;;10.33;9.53;;;;;;;2.29;90.23;97522.31;5057383;28;20427;-68
2021/04/30 03:00:46;;;;;;;10.87;9.97;;;;;;;2.27;89.41;97531.22;5054979;28;20223;-70
2021/04/30 03:03:13;;;;;;;9.63;8.93;;;;;;;2.44;88.89;97537.72;5061026;28;20226;-70
2021/04/30 03:05:41;;;;;;;9.77;8.97;;;;;;;2.27;89.27;97537.31;5060539;28;20218;-71
2021/04/30 03:08:09;;;;;;;10.87;9.97;;;;;;;2.22;90.53;97539.47;5061713;28;20571;-69
2021/04/30 03:10:36;;;;;;;10.03;8.90;;;;;;;2.22;91.32;97534.22;5061630;28;20218;-68
2021/04/30 03:13:03;;;;;;;9.87;9.07;;;;;;;2.08;91.95;97537.94;5057373;28;20791;-71
2021/04/30 03:15:30;;;;;;;10.93;10.03;;;;;;;2.02;92.69;97541.84;5053293;28;20242;-70
2021/04/30 03:17:57;;;;;;;9.73;9.00;;;;;;;2.21;91.64;97543.03;5054663;28;20376;-70
2021/04/30 03:20:24;;;;;;;9.57;8.77;;;;;;;2.09;90.84;97549.25;5053680;28;20449;-71
2021/04/30 03:22:52;;;;;;;9.10;8.40;;;;;;;2.00;92.60;97549.00;5059608;28;20587;-70
2021/04/30 03:25:19;;;;;;;9.57;8.77;;;;;;;1.92;92.20;97563.63;5060087;28;20206;-70
2021/04/30 03:27:46;;;;;;;10.00;9.20;;;;;;;1.80;92.87;97552.34;5060969;28;20219;-70
2021/04/30 03:30:14;;;;;;;11.43;10.43;;;;;;;1.85;93.44;97558.03;5060830;28;20230;-70
2021/04/30 03:32:41;;;;;;;10.27;9.47;;;;;;;1.89;91.69;97554.25;5056577;28;20230;-71
2021/04/30 03:35:10;;;;;;;9.83;9.03;;;;;;;1.95;91.35;97548.53;5059801;28;20214;-70
2021/04/30 03:37:37;;;;;;;10.43;9.53;;;;;;;1.82;92.58;97547.84;5060872;28;20202;-71
2021/04/30 03:40:06;;;;;;;10.53;9.53;;;;;;;1.76;94.29;97549.13;5060586;28;20207;-71
2021/04/30 03:42:33;;;;;;;10.33;9.40;;;;;;;1.93;92.97;97547.81;5057506;28;20341;-72
2021/04/30 03:45:00;;;;;;;10.47;9.57;;;;;;;1.87;91.73;97543.06;5059905;28;20671;-71
2021/04/30 03:47:27;;;;;;;10.13;9.33;;;;;;;1.75;91.80;97551.88;5059876;28;20612;-70
2021/04/30 03:49:54;;;;;;;10.37;9.57;;;;;;;1.73;92.66;97555.44;5052377;28;20206;-70
2021/04/30 03:52:21;;;;;;;10.10;9.20;;;;;;;1.78;92.60;97557.69;5061265;28;20238;-70
2021/04/30 03:54:48;;;;;;;10.30;9.50;;;;;;;1.68;93.10;97554.94;5059221;28;20199;-67
2021/04/30 03:57:16;;;;;;;10.67;9.67;;;;;;;1.60;93.59;97559.94;5058393;28;20513;-70
2021/04/30 03:59:43;;;;;;;10.60;9.63;;;;;;;1.73;92.96;97560.66;5056287;28;20207;-70
2021/04/30 04:02:10;;;;;;;9.97;9.10;;;;;;;1.68;93.47;97554.13;5055701;28;20333;-71
2021/04/30 04:04:38;;;;;;;10.77;9.87;;;;;;;1.76;93.12;97548.31;5061350;28;20709;-71
2021/04/30 04:07:05;;;;;;;9.77;9.00;;;;;;;1.92;91.52;97540.13;5065067;28;20495;-71
2021/04/30 04:09:32;;;;;;;11.03;10.13;;;;;;;1.72;93.57;97545.09;5064530;28;20520;-70
2021/04/30 04:11:59;;;;;;;10.63;9.73;;;;;;;1.70;94.58;97555.66;5064472;28;20230;-67
2021/04/30 04:14:28;;;;;;;10.40;9.53;;;;;;;1.70;94.48;97554.84;5059799;28;20206;-66
2021/04/30 04:16:55;;;;;;;10.60;9.70;;;;;;;1.98;93.32;97544.84;5060004;28;20211;-67
2021/04/30 04:19:22;;;;;;;10.97;9.87;;;;;;;2.20;90.99;97549.22;5060264;28;20208;-66
2021/04/30 04:21:52;;;;;;;11.20;10.20;;;;;;;2.08;91.68;97548.41;5059351;28;20227;-67
2021/04/30 04:24:19;;;;;;;10.63;9.70;;;;;;;2.17;90.22;97552.88;5058368;28;20475;-67
2021/04/30 04:26:46;;;;;;;9.93;9.13;;;;;;;2.25;90.37;97554.91;5058873;28;20522;-65
2021/04/30 04:29:13;;;;;;;11.50;9.83;;;;;;;2.33;90.68;97556.06;5060400;28;20213;-65
2021/04/30 04:31:41;;;;;;;11.13;10.07;;;;;;;2.47;90.87;97558.44;5056950;28;20234;-66
2021/04/30 04:34:09;;;;;;;11.80;10.63;;;;;;;2.57;89.17;97564.56;5057164;28;20207;-65
2021/04/30 04:36:36;;;;;;;10.43;9.50;;;;;;;2.80;87.99;97566.28;5058727;28;20449;-66
2021/04/30 04:39:04;;;;;;;11.13;10.13;;;;;;;2.91;87.60;97574.06;5053182;28;20222;-65
2021/04/30 04:41:31;;;;;;;10.87;10.07;;;;;;;2.82;88.20;97572.22;5053423;28;20310;-67
2021/04/30 04:43:58;;;;;;;11.70;10.50;;;;;;;2.79;88.20;97569.84;5061549;28;20203;-67
2021/04/30 04:46:24;;;;;;;11.17;10.27;;;;;;;2.96;87.79;97578.94;5059947;28;20227;-67
2021/04/30 04:48:52;;;;;;;10.10;9.30;;;;;;;3.08;87.05;97584.97;5057536;28;20755;-67
2021/04/30 04:51:19;;;;;;;10.70;9.87;;;;;;;2.96;88.08;97584.16;5048701;28;20208;-67
2021/04/30 04:53:46;;;;;;;10.40;9.43;;;;;;;3.04;87.46;97581.75;5051103;28;20207;-67
2021/04/30 04:56:25;;;;;;;10.83;9.90;;;;;;;2.99;87.78;97583.91;5052277;28;20283;-67
2021/04/30 04:58:52;;;;;;;11.80;10.70;;;;;;;3.07;87.12;97573.63;5058665;28;20199;-67
2021/04/30 05:01:19;;;;;;;10.03;9.23;;;;;;;3.24;86.21;97577.47;5057645;28;20206;-71
2021/04/30 05:03:46;;;;;;;11.23;10.23;;;;;;;3.54;84.56;97572.41;5058512;28;20209;-69
2021/04/30 05:06:14;;;;;;;11.97;11.07;;;;;;;3.65;82.96;97579.34;5057419;28;20524;-71
2021/04/30 05:08:42;;;;;;;12.00;10.90;;;;;;;3.71;83.66;97578.84;5055511;28;20221;-70
2021/04/30 05:11:09;;;;;;;10.93;10.00;;;;;;;3.86;82.81;97584.56;5053957;28;20207;-71
2021/04/30 05:13:36;;;;;;;10.97;10.07;;;;;;;3.85;82.91;97589.00;5061607;28;20230;-71
2021/04/30 05:16:05;;;;;;;11.00;10.10;;;;;;;3.72;84.11;97596.22;5059816;28;20213;-71
2021/04/30 05:18:33;;;;;;;11.50;10.37;;;;;;;3.70;84.77;97601.59;5054472;28;20746;-70
2021/04/30 05:21:00;;;;;;;10.97;10.07;;;;;;;3.95;83.38;97596.06;5057776;28;20200;-70
2021/04/30 05:23:28;;;;;;;10.83;9.93;;;;;;;4.03;83.09;97583.09;5061302;28;20397;-70
2021/04/30 05:25:55;;;;;;;10.50;9.60;;;;;;;3.97;83.07;97586.25;5059909;28;20207;-70
2021/04/30 05:28:22;;;;;;;11.50;10.57;;;;;;;4.31;81.30;97573.66;5058626;28;20227;-70
2021/04/30 05:30:49;;;;;;;11.10;10.10;;;;;;;4.50;81.20;97577.31;5059113;28;20230;-71
2021/04/30 05:33:16;;;;;;;11.00;10.00;;;;;;;4.66;79.45;97591.69;5055944;28;20231;-72
2021/04/30 05:35:43;;;;;;;14.57;10.90;;;;;;;4.61;79.88;97592.91;5061981;28;20325;-72
2021/04/30 05:38:10;;;;;;;13.37;11.97;;;;;;;4.82;80.10;97589.34;5055503;28;20206;-72
2021/04/30 05:40:38;;;;;;;11.87;10.87;;;;;;;4.84;80.91;97595.31;5059178;28;20207;-72
2021/04/30 05:43:06;;;;;;;12.93;11.80;;;;;;;5.10;77.37;97602.59;5056352;28;20226;-71
2021/04/30 05:45:33;;;;;;;11.80;10.70;;;;;;;5.15;80.02;97600.41;5052243;28;20211;-72
2021/04/30 05:48:00;;;;;;;11.73;10.73;;;;;;;5.29;77.99;97598.31;5052820;28;20226;-71
2021/04/30 05:50:27;;;;;;;13.23;11.93;;;;;;;5.28;77.95;97594.84;5055460;28;20211;-72
2021/04/30 05:52:54;;;;;;;11.67;10.77;;;;;;;5.32;78.72;97604.13;5058616;28;20944;-72
2021/04/30 05:55:21;;;;;;;11.00;10.10;;;;;;;5.62;76.46;97606.72;5061195;28;20207;-71
2021/04/30 05:57:49;;;;;;;12.10;11.00;;;;;;;5.62;76.98;97599.63;5054145;28;20467;-71
2021/04/30 06:00:16;;;;;;;11.10;10.17;;;;;;;5.81;75.16;97600.56;5056695;28;20207;-71
2021/04/30 06:02:43;;;;;;;11.47;10.47;;;;;;;5.94;75.77;97605.50;5058689;28;20404;-71
2021/04/30 06:05:11;;;;;;;11.70;10.70;;;;;;;6.15;72.89;97599.22;5055037;28;20867;-72
2021/04/30 06:07:38;;;;;;;12.63;11.63;;;;;;;6.20;71.13;97596.97;5052634;28;20230;-70
2021/04/30 06:10:06;;;;;;;11.57;10.63;;;;;;;6.48;71.10;97607.50;5057495;28;20207;-72
2021/04/30 06:12:33;;;;;;;12.13;11.13;;;;;;;6.60;69.42;97601.03;5055494;28;20227;-71
2021/04/30 06:15:01;;;;;;;12.90;11.77;;;;;;;6.53;68.49;97607.88;5054759;28;20226;-71
2021/04/30 06:17:28;;;;;;;12.20;11.30;;;;;;;6.68;70.06;97600.31;5052300;28;20462;-73
2021/04/30 06:19:55;;;;;;;11.93;10.93;;;;;;;6.64;68.06;97601.59;5054014;28;20203;-70
2021/04/30 06:22:23;;;;;;;11.60;10.67;;;;;;;6.95;66.44;97594.13;5054769;28;20745;-71
2021/04/30 06:24:50;;;;;;;12.33;11.20;;;;;;;7.13;65.29;97601.22;5058017;28;20211;-71
2021/04/30 06:27:17;;;;;;;11.77;10.67;;;;;;;7.21;64.39;97606.56;5059662;28;20226;-71
2021/04/30 06:29:44;;;;;;;11.57;10.53;;;;;;;7.33;64.49;97606.31;5057164;28;20686;-70
2021/04/30 06:32:12;;;;;;;10.77;9.93;;;;;;;7.36;62.73;97600.72;5059711;28;20230;-70
2021/04/30 06:34:39;;;;;;;12.27;11.17;;;;;;;7.33;61.85;97604.50;5057115;28;20876;-69
2021/04/30 06:37:06;;;;;;;11.67;10.63;;;;;;;7.33;61.82;97606.31;5055297;28;20198;-71
2021/04/30 06:39:33;;;;;;;12.30;11.20;;;;;;;7.35;62.33;97606.97;5057961;28;20213;-71
2021/04/30 06:42:02;;;;;;;12.00;11.00;;;;;;;7.31;62.67;97613.53;5056330;28;20219;-70
2021/04/30 06:44:30;;;;;;;13.17;11.67;;;;;;;7.58;60.19;97609.97;5056111;28;20303;-71
2021/04/30 06:46:57;;;;;;;12.27;11.23;;;;;;;7.43;62.19;97614.97;5057318;28;20683;-71
2021/04/30 06:49:26;;;;;;;11.47;10.33;;;;;;;7.55;59.25;97604.19;5055551;28;20525;-68
2021/04/30 06:51:53;;;;;;;11.50;10.40;;;;;;;7.55;58.39;97604.19;5057543;28;20227;-67
2021/04/30 06:54:20;;;;;;;11.67;10.77;;;;;;;7.50;59.23;97607.25;5054100;28;20682;-68
2021/04/30 06:56:47;;;;;;;11.97;10.73;;;;;;;7.50;58.92;97597.56;5054790;28;20195;-68
2021/04/30 06:59:14;;;;;;;11.13;10.23;;;;;;;7.58;57.78;97601.22;5055494;28;20215;-70
2021/04/30 07:01:41;;;;;;;13.20;11.17;;;;;;;7.74;58.66;97605.78;5058552;28;20222;-70
2021/04/30 07:04:09;;;;;;;11.73;10.70;;;;;;;7.87;56.97;97602.72;5054482;28;20211;-69
2021/04/30 07:06:37;;;;;;;11.60;10.60;;;;;;;7.72;57.97;97598.00;5056149;28;20264;-71
2021/04/30 07:09:05;;;;;;;11.57;10.67;;;;;;;7.84;58.46;97600.41;5056020;28;20232;-72
2021/04/30 07:11:32;;;;;;;11.50;10.50;;;;;;;8.18;59.88;97595.13;5054884;28;20294;-72
2021/04/30 07:14:00;;;;;;;12.33;11.37;;;;;;;8.17;56.26;97600.56;5059247;28;20199;-70
2021/04/30 07:16:27;;;;;;;13.13;12.03;;;;;;;8.01;56.81;97599.50;5051732;28;20579;-70
2021/04/30 07:18:54;;;;;;;11.87;10.87;;;;;;;8.26;57.90;97594.34;5055272;28;20198;-69
2021/04/30 07:21:21;;;;;;;13.17;12.07;;;;;;;8.44;56.09;97596.03;5051282;28;20203;-69
2021/04/30 07:23:48;;;;;;;12.53;11.33;;;;;;;8.36;56.26;97594.22;5059614;28;20206;-67
2021/04/30 07:26:16;;;;;;;12.00;11.10;;;;;;;8.40;56.80;97596.34;5048991;28;20582;-72
2021/04/30 07:28:43;;;;;;;12.67;11.57;;;;;;;8.62;57.31;97575.66;5049509;28;20262;-73
2021/04/30 07:31:10;;;;;;;13.73;12.57;;;;;;;8.77;55.04;97572.38;5051630;28;20579;-71
2021/04/30 07:33:41;;;;;;;12.90;11.80;;;;;;;8.66;55.54;97579.63;5050830;28;21856;-70
2021/04/30 07:36:08;;;;;;;12.50;11.50;;;;;;;8.62;55.21;97588.03;5054791;28;20281;-70
2021/04/30 07:38:35;;;;;;;12.50;11.30;;;;;;;8.81;56.02;97581.63;5060032;28;20207;-69
2021/04/30 07:41:03;;;;;;;13.20;12.13;;;;;;;8.85;54.78;97567.09;5058369;28;20567;-70
2021/04/30 07:43:30;;;;;;;12.90;11.87;;;;;;;8.90;55.17;97558.69;5062435;28;20244;-72
2021/04/30 07:45:59;;;;;;;13.37;12.27;;;;;;;8.97;55.46;97560.53;5060670;28;20241;-72
2021/04/30 07:48:26;;;;;;;13.63;12.43;;;;;;;9.36;55.14;97555.56;5055551;28;20227;-71
2021/04/30 07:50:55;;;;;;;13.33;12.17;;;;;;;9.92;52.77;97558.25;5059365;28;20286;-69
2021/04/30 07:53:22;;;;;;;13.13;11.87;;;;;;;9.81;53.07;97550.66;5057532;28;20824;-71
2021/04/30 07:55:49;;;;;;;12.10;11.20;;;;;;;9.90;52.67;97556.75;5056080;28;20203;-72
2021/04/30 07:58:19;;;;;;;13.20;12.10;;;;;;;9.76;52.10;97551.19;5051470;28;20334;-71
2021/04/30 08:00:46;;;;;;;12.50;11.53;;;;;;;10.16;52.65;97548.53;5053708;28;20199;-72
2021/04/30 08:03:13;;;;;;;13.10;12.00;;;;;;;10.20;51.23;97547.19;5057366;28;20246;-71
2021/04/30 08:05:40;;;;;;;12.63;11.63;;;;;;;10.28;51.49;97543.69;5056674;28;20199;-72
2021/04/30 08:08:07;;;;;;;12.07;10.87;;;;;;;10.43;50.92;97546.47;5054184;28;20223;-72
2021/04/30 08:10:33;;;;;;;11.97;10.97;;;;;;;10.26;50.41;97543.88;5063001;28;20677;-72
2021/04/30 08:13:00;;;;;;;11.27;10.37;;;;;;;10.11;48.35;97535.84;5064018;28;20721;-73
2021/04/30 08:15:28;;;;;;;11.20;10.40;;;;;;;9.83;48.63;97532.78;5061398;28;20397;-70
2021/04/30 08:17:55;;;;;;;11.67;10.67;;;;;;;9.46;50.01;97527.09;5061135;28;20440;-71
2021/04/30 08:20:22;;;;;;;12.60;11.50;;;;;;;9.75;49.60;97533.66;5059148;28;20214;-72
2021/04/30 08:22:49;;;;;;;12.67;11.47;;;;;;;9.82;51.08;97534.63;5061306;28;20219;-71
2021/04/30 08:25:16;;;;;;;12.53;11.37;;;;;;;9.88;51.33;97537.56;5059940;28;20222;-73
2021/04/30 08:27:44;;;;;;;11.60;10.60;;;;;;;10.18;48.73;97535.94;5059653;28;20875;-71
2021/04/30 08:30:13;;;;;;;11.47;10.57;;;;;;;10.11;49.02;97541.13;5055196;28;20220;-72
2021/04/30 08:32:41;;;;;;;11.80;10.70;;;;;;;10.47;47.58;97539.00;5056633;28;20245;-72
2021/04/30 08:35:08;;;;;;;12.50;11.33;;;;;;;10.33;49.01;97533.41;5058782;28;20787;-71
2021/04/30 08:37:35;;;;;;;13.33;12.23;;;;;;;10.44;50.23;97531.41;5060120;28;20206;-72
2021/04/30 08:40:04;;;;;;;11.90;10.90;;;;;;;10.53;48.96;97533.00;5056247;28;20447;-72
2021/04/30 08:42:33;;;;;;;11.73;10.73;;;;;;;10.52;47.30;97537.47;5054229;28;20722;-72
2021/04/30 08:45:01;;;;;;;12.63;11.43;;;;;;;10.18;48.72;97537.78;5055239;28;20207;-72
2021/04/30 08:47:28;;;;;;;12.13;11.10;;;;;;;10.02;49.39;97536.84;5053411;28;20223;-71
2021/04/30 08:49:56;;;;;;;12.30;11.03;;;;;;;9.82;50.00;97539.91;5055395;28;20203;-72
2021/04/30 08:52:23;;;;;;;12.57;11.27;;;;;;;9.82;49.86;97534.63;5059957;28;20229;-72
2021/04/30 08:54:52;;;;;;;11.97;11.07;;;;;;;9.75;50.15;97531.00;5058315;28;20213;-71
2021/04/30 08:57:24;;;;;;;11.90;11.00;;;;;;;9.61;50.68;97527.25;5056268;28;20202;-73
2021/04/30 08:59:56;;;;;;;12.37;11.17;;;;;;;9.64;50.98;97526.06;5061364;28;20203;-71
2021/04/30 09:02:24;;;;;;;13.07;11.67;;;;;;;9.63;50.36;97527.06;5060765;28;20610;-72
2021/04/30 09:04:52;;;;;;;11.30;10.40;;;;;;;9.74;50.37;97517.94;5059709;28;20252;-71
2021/04/30 09:07:21;;;;;;;11.53;10.60;;;;;;;9.74;50.52;97516.13;5057134;28;20229;-70
2021/04/30 09:10:02;;;;;;;12.07;10.97;;;;;;;9.68;51.36;97519.47;5061751;28;20693;-70
2021/04/30 09:12:30;;;;;;;11.50;10.50;;;;;;;9.79;50.32;97516.44;5058022;28;20487;-70
2021/04/30 09:14:57;;;;;;;12.43;11.30;;;;;;;9.70;51.16;97515.63;5057429;28;20563;-73
2021/04/30 09:17:25;;;;;;;13.23;11.97;;;;;;;9.91;49.64;97514.25;5059898;28;20577;-73
2021/04/30 09:19:56;;;;;;;12.53;11.53;;;;;;;9.83;49.65;97525.69;5058111;28;20383;-72
2021/04/30 09:22:25;;;;;;;12.23;11.23;;;;;;;9.63;50.11;97521.75;5063374;28;20257;-71
2021/04/30 09:24:54;;;;;;;12.63;11.43;;;;;;;9.74;49.56;97516.13;5058728;28;20206;-72
2021/04/30 09:27:29;;;;;;;12.73;11.53;;;;;;;9.63;50.90;97512.03;5059245;28;20238;-73
2021/04/30 09:30:14;;;;;;;13.67;12.43;;;;;;;9.55;51.10;97509.41;5059682;28;20206;-72
2021/04/30 09:33:03;;;;;;;11.97;11.07;;;;;;;9.83;50.79;97514.25;5056334;28;20345;-74
2021/04/30 09:35:51;;;;;;;12.27;11.27;;;;;;;9.75;50.12;97515.13;5060593;28;20284;-72
2021/04/30 09:38:25;;;;;;;12.30;11.30;;;;;;;9.65;50.95;97511.84;5058927;28;20825;-73
2021/04/30 09:41:07;;;;;;;12.53;11.43;;;;;;;9.91;50.39;97521.34;5059020;28;20626;-71
2021/04/30 09:43:46;;;;;;;12.87;11.67;;;;;;;10.12;49.88;97526.06;5057430;28;20313;-74
2021/04/30 09:46:26;;;;;;;12.80;11.60;;;;;;;10.24;49.40;97516.75;5059036;28;20195;-73
2021/04/30 09:48:58;;;;;;;12.30;11.10;;;;;;;10.26;49.05;97517.41;5058794;28;20314;-72
2021/04/30 09:51:43;;;;;;;11.50;10.50;;;;;;;10.41;48.22;97521.97;5058004;28;20237;-72
2021/04/30 09:54:20;;;;;;;12.33;11.13;;;;;;;10.28;49.11;97517.22;5056390;28;20207;-73
2021/04/30 09:56:48;;;;;;;12.40;11.33;;;;;;;10.47;49.32;97523.94;5052128;28;20382;-72
2021/04/30 09:59:27;;;;;;;12.50;11.43;;;;;;;10.74;47.75;97513.81;5057703;28;20734;-71
2021/04/30 10:02:02;;;;;;;11.93;10.90;;;;;;;11.37;46.55;97510.97;5058341;28;20218;-72
2021/04/30 10:04:31;;;;;;;14.43;11.33;;;;;;;11.73;46.28;97504.13;5055265;28;20211;-72
2021/04/30 10:06:59;;;;;;;12.67;11.47;;;;;;;11.98;44.69;97498.53;5055174;28;20665;-72
2021/04/30 10:09:27;;;;;;;11.50;10.40;;;;;;;12.24;45.09;97486.59;5056810;28;20222;-70
2021/04/30 10:11:54;;;;;;;10.70;9.80;;;;;;;12.44;41.69;97470.84;5058831;28;20222;-72
2021/04/30 10:14:23;;;;;;;10.53;9.73;;;;;;;12.44;43.75;97462.88;5058041;28;20203;-70
2021/04/30 10:16:51;;;;;;;10.37;9.50;;;;;;;12.91;42.05;97455.34;5053944;28;20199;-71
2021/04/30 10:19:18;;;;;;;10.37;9.53;;;;;;;13.40;40.32;97442.16;5058004;28;20555;-72
2021/04/30 10:21:45;;;;;;;10.97;10.03;;;;;;;13.63;39.83;97435.78;5031056;28;20237;-71
2021/04/30 10:24:15;;;;;;;11.53;10.53;;;;;;;14.07;40.23;97431.06;5057630;28;20234;-72
2021/04/30 10:26:57;;;;;;;11.03;10.07;;;;;;;13.47;40.34;97432.44;5056653;28;20209;-72
2021/04/30 10:29:26;;;;;;;11.23;10.23;;;;;;;12.37;41.06;97440.75;5056816;28;20976;-72
2021/04/30 10:31:56;;;;;;;10.50;9.70;;;;;;;12.87;40.82;97456.75;5059532;28;20721;-71
2021/04/30 10:34:25;;;;;;;10.53;9.73;;;;;;;12.63;41.05;97457.97;5057813;28;20212;-72
2021/04/30 10:36:54;;;;;;;10.50;9.50;;;;;;;12.62;42.42;97467.78;5061067;28;20233;-71
2021/04/30 10:39:27;;;;;;;11.07;9.97;;;;;;;12.08;43.00;97466.38;5059260;28;20195;-72
2021/04/30 10:41:56;;;;;;;9.93;8.97;;;;;;;12.74;41.27;97447.66;5059565;28;20598;-72
2021/04/30 10:44:26;;;;;;;10.77;9.70;;;;;;;12.81;41.47;97444.22;5056760;28;20215;-73
2021/04/30 10:47:26;;;;;;;10.53;9.63;;;;;;;12.96;41.45;97454.78;5061068;28;21051;-71
2021/04/30 10:50:14;;;;;;;11.07;9.97;;;;;;;13.19;40.84;97451.88;5053904;28;20234;-67
2021/04/30 10:52:41;;;;;;;10.90;9.83;;;;;;;12.92;41.21;97457.00;5060197;28;20223;-67
2021/04/30 10:55:10;;;;;;;11.07;9.93;;;;;;;12.76;40.91;97452.75;5058823;28;20250;-66
2021/04/30 10:57:48;;;;;;;11.30;10.30;;;;;;;12.64;42.45;97456.97;5060751;28;20209;-66
2021/04/30 11:00:15;;;;;;;10.20;9.40;;;;;;;12.81;41.64;97453.00;5061224;28;20606;-67
2021/04/30 11:02:43;;;;;;;12.03;10.57;;;;;;;12.95;41.55;97458.44;5061526;28;20228;-67
2021/04/30 11:05:17;;;;;;;9.90;8.90;;;;;;;13.36;39.58;97451.56;5053195;28;20672;-67
2021/04/30 11:07:47;;;;;;;10.63;9.73;;;;;;;13.41;40.17;97447.31;5059220;28;20595;-67
2021/04/30 11:10:39;;;;;;;9.40;8.60;;;;;;;13.75;38.60;97432.38;5055488;28;20214;-67
2021/04/30 11:13:15;;;;;;;10.40;9.50;;;;;;;13.91;38.58;97427.72;5060253;28;20231;-66
2021/04/30 11:15:59;;;;;;;10.57;9.57;;;;;;;13.49;38.06;97426.91;5057897;28;20662;-68
2021/04/30 11:18:30;;;;;;;10.47;9.40;;;;;;;13.32;39.48;97421.88;5057054;28;20212;-66
2021/04/30 11:21:03;;;;;;;10.03;9.23;;;;;;;13.77;37.80;97431.34;5061257;28;20213;-67
2021/04/30 11:23:37;;;;;;;10.23;9.53;;;;;;;14.44;36.38;97426.22;5061807;28;20226;-67
2021/04/30 11:26:13;;;;;;;11.63;10.67;;;;;;;14.32;37.07;97428.66;5061648;28;20396;-67
2021/04/30 11:29:05;;;;;;;9.67;8.90;;;;;;;14.48;38.50;97430.91;5053414;28;20222;-67
2021/04/30 11:31:33;;;;;;;10.00;9.03;;;;;;;15.28;35.06;97429.28;5057452;28;20256;-67
2021/04/30 11:34:22;;;;;;;10.07;9.17;;;;;;;15.32;36.85;97422.50;5060459;28;20268;-67
2021/04/30 11:36:55;;;;;;;9.77;8.73;;;;;;;15.94;35.50;97426.69;5058754;28;20252;-67